Time;durP1;ratioP1;P1;durP2;ratioP2;P2;SDS_P1;SDS_P2;PMS_P1;PMS_P2;Temp;Humidity;BMP_temperature;BMP_pressure;BME280_temperature;BME280_humidity;BME280_pressure;Samples;Min_cycle;Max_cycle;Signal;HPM_P1;HPM_P2
2022/09/30 00:00:32;;;;;;;9.47;5.70;;;;;;;16.62;72.91;99857.61;1700719;83;21823;-73
2022/09/30 00:02:58;;;;;;;6.97;5.20;;;;;;;16.66;73.18;99859.91;1696338;84;21726;-73
2022/09/30 00:05:25;;;;;;;7.97;5.20;;;;;;;16.71;73.44;99863.00;1701713;82;21738;-73
2022/09/30 00:07:52;;;;;;;6.90;5.53;;;;;;;16.75;73.68;99858.59;1695110;83;21791;-73
2022/09/30 00:10:18;;;;;;;8.53;5.53;;;;;;;16.82;74.15;99844.89;1676577;82;22020;-72
2022/09/30 00:12:46;;;;;;;7.13;5.63;;;;;;;16.82;74.15;99844.89;1700668;82;21007;-73
2022/09/30 00:15:17;;;;;;;7.97;5.70;;;;;;;16.90;74.29;99841.95;1700082;82;22239;-73
2022/09/30 00:17:44;;;;;;;8.73;5.80;;;;;;;16.95;74.39;99840.47;1689210;82;21854;-74
2022/09/30 00:20:13;;;;;;;9.47;5.73;;;;;;;17.00;74.43;99850.30;1698228;82;21801;-74
2022/09/30 00:22:40;;;;;;;8.47;5.27;;;;;;;17.03;74.51;99855.06;1700241;82;21797;-74
2022/09/30 00:25:07;;;;;;;7.57;5.20;;;;;;;17.07;74.57;99858.14;1699517;82;22313;-74
2022/09/30 00:27:34;;;;;;;7.73;5.10;;;;;;;17.11;74.57;99855.63;1696430;82;21630;-73
2022/09/30 00:30:00;;;;;;;7.20;5.60;;;;;;;17.13;74.59;99852.05;1699007;82;21091;-73
2022/09/30 00:32:27;;;;;;;8.70;5.57;;;;;;;17.11;74.61;99848.33;1695978;83;21118;-73
2022/09/30 00:34:53;;;;;;;5.80;5.10;;;;;;;17.08;74.76;99835.47;1697128;84;21050;-73
2022/09/30 00:37:20;;;;;;;7.70;5.40;;;;;;;17.11;74.91;99844.28;1692375;84;21109;-75
2022/09/30 00:39:47;;;;;;;7.07;5.00;;;;;;;17.13;75.06;99845.30;1691618;83;21866;-74
2022/09/30 00:42:14;;;;;;;6.50;5.03;;;;;;;17.16;75.21;99856.02;1698559;82;21154;-74
2022/09/30 00:44:53;;;;;;;7.57;5.30;;;;;;;17.16;75.35;99854.66;1698567;82;21500;-74
2022/09/30 00:47:32;;;;;;;7.00;4.93;;;;;;;17.16;75.47;99853.32;1697726;83;21099;-73
2022/09/30 00:50:16;;;;;;;7.27;5.07;;;;;;;17.17;75.62;99861.08;1688186;82;21114;-74
2022/09/30 00:52:45;;;;;;;8.53;5.33;;;;;;;17.21;75.70;99870.69;1693818;82;21249;-74
2022/09/30 00:55:34;;;;;;;6.67;5.07;;;;;;;17.24;75.73;99874.09;1695739;82;21316;-74
2022/09/30 00:58:01;;;;;;;7.73;5.00;;;;;;;17.26;75.74;99871.88;1695208;84;21111;-74
2022/09/30 01:00:29;;;;;;;7.17;4.47;;;;;;;17.27;75.73;99876.95;1687017;84;21040;-74
2022/09/30 01:02:56;;;;;;;7.97;4.83;;;;;;;17.29;75.74;99880.70;1695293;83;21118;-75
2022/09/30 01:05:24;;;;;;;7.77;5.23;;;;;;;17.31;75.76;99883.89;1700378;82;21602;-74
2022/09/30 01:07:54;;;;;;;5.60;4.77;;;;;;;17.32;75.75;99887.60;1695557;84;21140;-73
2022/09/30 01:10:20;;;;;;;5.30;4.40;;;;;;;17.33;75.72;99881.64;1693313;83;21079;-73
2022/09/30 01:12:47;;;;;;;7.03;5.10;;;;;;;17.34;75.72;99876.47;1699018;84;21173;-73
2022/09/30 01:15:14;;;;;;;7.17;4.67;;;;;;;17.32;75.74;99879.50;1693067;82;21559;-73
2022/09/30 01:17:56;;;;;;;5.90;4.93;;;;;;;17.33;75.78;99884.34;1700007;83;21241;-73
2022/09/30 01:20:47;;;;;;;7.93;4.53;;;;;;;17.35;75.81;99885.62;1699322;83;21102;-73
2022/09/30 01:23:43;;;;;;;;;;;;;;;17.38;75.82;99880.70;1700822;84;21118;-73
2022/09/30 01:26:24;;;;;;;6.30;4.87;;;;;;;17.40;75.75;99887.34;1695987;84;20180;-73
2022/09/30 01:29:20;;;;;;;6.83;4.50;;;;;;;17.40;75.67;99888.70;1699647;82;21106;-73
2022/09/30 01:32:28;;;;;;;6.97;4.53;;;;;;;17.41;75.60;99894.36;1693392;82;21664;-73
2022/09/30 01:35:31;;;;;;;8.40;5.00;;;;;;;17.41;75.55;99887.61;1694170;82;21119;-73
2022/09/30 01:38:14;;;;;;;8.27;5.23;;;;;;;17.40;75.62;99895.45;1652608;85;21683;-74
2022/09/30 01:41:09;;;;;;;7.40;5.23;;;;;;;17.39;75.58;99892.52;1695094;82;21076;-74
2022/09/30 01:43:48;;;;;;;7.37;5.17;;;;;;;17.39;75.62;99895.78;1700989;82;21063;-75
2022/09/30 01:46:43;;;;;;;6.93;5.10;;;;;;;17.35;75.50;99888.31;1697462;82;21226;-74
2022/09/30 01:49:30;;;;;;;7.73;5.17;;;;;;;17.32;75.45;99889.52;1701752;82;21103;-74
2022/09/30 01:52:22;;;;;;;8.00;5.50;;;;;;;17.27;75.40;99895.05;1700870;82;21127;-74
2022/09/30 01:54:58;;;;;;;;;;;;;;;17.22;75.37;99884.44;1699081;82;21063;-74
2022/09/30 01:57:57;;;;;;;7.87;5.10;;;;;;;17.17;75.28;99881.32;1701650;82;20177;-73
2022/09/30 02:00:24;;;;;;;7.30;5.73;;;;;;;17.13;75.25;99889.03;1700178;82;21305;-73
2022/09/30 02:03:08;;;;;;;8.10;5.67;;;;;;;17.09;75.27;99893.70;1700969;82;21051;-73
2022/09/30 02:06:01;;;;;;;7.73;5.17;;;;;;;17.07;75.25;99890.52;1693541;82;21056;-73
2022/09/30 02:08:51;;;;;;;9.27;5.40;;;;;;;17.04;75.26;99882.27;1701592;82;21150;-73
2022/09/30 02:11:26;;;;;;;7.30;5.20;;;;;;;16.95;75.24;99887.67;1687436;82;21008;-73
2022/09/30 02:14:02;;;;;;;7.97;5.57;;;;;;;16.95;75.24;99887.67;1695381;82;21123;-73
2022/09/30 02:16:40;;;;;;;7.80;5.40;;;;;;;16.95;75.31;99886.89;1698965;82;21189;-72
2022/09/30 02:19:27;;;;;;;7.97;5.83;;;;;;;16.91;75.26;99881.30;1699672;82;20992;-75
2022/09/30 02:22:05;;;;;;;9.20;6.07;;;;;;;16.90;75.28;99882.98;1699408;83;21562;-73
2022/09/30 02:24:37;;;;;;;7.40;6.07;;;;;;;16.86;75.23;99889.56;1699053;82;21806;-74
2022/09/30 02:27:08;;;;;;;9.07;6.50;;;;;;;16.80;75.24;99884.07;1697567;82;21923;-74
2022/09/30 02:29:37;;;;;;;7.47;5.35;;;;;;;16.79;75.13;99887.33;1701420;82;21384;-73
2022/09/30 02:32:11;;;;;;;7.77;5.93;;;;;;;16.76;75.14;99894.70;1700345;82;21058;-74
2022/09/30 02:34:40;;;;;;;6.20;5.20;;;;;;;16.72;75.12;99884.83;1697392;82;22469;-73
2022/09/30 02:37:35;;;;;;;7.30;5.63;;;;;;;16.70;75.10;99891.08;1701309;82;22096;-73
2022/09/30 02:40:28;;;;;;;8.53;6.20;;;;;;;16.68;75.14;99894.63;1695069;82;21691;-74
2022/09/30 02:42:54;;;;;;;10.97;5.90;;;;;;;16.63;75.22;99889.64;1694984;82;21730;-74
2022/09/30 02:45:22;;;;;;;6.53;5.73;;;;;;;16.59;75.24;99887.33;1702922;82;21654;-72
2022/09/30 02:48:11;;;;;;;7.93;6.10;;;;;;;16.56;75.26;99897.95;1698825;84;21781;-73
2022/09/30 02:50:52;;;;;;;9.87;6.10;;;;;;;16.53;75.33;99902.05;1699841;82;21798;-74
2022/09/30 02:53:26;;;;;;;8.07;6.50;;;;;;;16.52;75.48;99893.73;1698687;82;21726;-75
2022/09/30 02:56:15;;;;;;;7.80;6.07;;;;;;;16.52;75.62;99901.83;1698381;82;21868;-73
2022/09/30 02:58:42;;;;;;;9.70;6.40;;;;;;;16.52;75.64;99904.52;1699995;82;22335;-73
2022/09/30 03:01:11;;;;;;;8.43;6.57;;;;;;;16.51;75.65;99903.47;1701465;83;22262;-74
2022/09/30 03:03:42;;;;;;;7.67;6.53;;;;;;;16.52;75.65;99903.70;1702368;83;21821;-74
2022/09/30 03:06:09;;;;;;;8.27;6.20;;;;;;;16.50;75.64;99905.94;1704204;82;21729;-74
2022/09/30 03:08:36;;;;;;;8.40;6.33;;;;;;;16.48;75.65;99908.92;1700426;82;22367;-74
2022/09/30 03:11:03;;;;;;;7.67;6.30;;;;;;;16.46;75.60;99914.41;1697570;82;21810;-72
2022/09/30 03:14:08;;;;;;;9.00;6.80;;;;;;;16.43;75.50;99919.08;1703023;82;21777;-73
2022/09/30 03:17:19;;;;;;;10.97;6.37;;;;;;;16.39;75.37;99917.56;1678845;82;22224;-75
2022/09/30 03:20:20;;;;;;;8.57;6.27;;;;;;;16.33;75.28;99912.06;1701518;82;21765;-74
2022/09/30 03:23:44;;;;;;;8.05;6.37;;;;;;;16.27;75.29;99910.05;1700759;82;21687;-72
2022/09/30 03:26:26;;;;;;;8.00;6.13;;;;;;;16.22;75.27;99908.81;1702257;82;21031;-72
2022/09/30 03:29:17;;;;;;;7.83;6.47;;;;;;;16.16;75.33;99909.53;1701797;82;23075;-74
2022/09/30 03:31:58;;;;;;;8.20;6.10;;;;;;;16.13;75.44;99907.45;1692777;82;21790;-73
2022/09/30 03:34:33;;;;;;;9.53;6.30;;;;;;;16.10;75.49;99913.45;1692823;82;22845;-74
2022/09/30 03:37:09;;;;;;;8.43;5.90;;;;;;;16.06;75.47;99915.19;1702691;82;21489;-72
2022/09/30 03:40:09;;;;;;;7.60;6.10;;;;;;;16.01;75.25;99911.27;1690250;83;22954;-72
2022/09/30 03:42:47;;;;;;;20.47;4.93;;;;;;;15.93;75.42;99912.02;1694958;82;22296;-74
2022/09/30 03:45:33;;;;;;;25.03;6.00;;;;;;;15.86;75.41;99918.38;1702863;82;21740;-74
2022/09/30 03:48:04;;;;;;;18.90;5.90;;;;;;;15.84;75.59;99916.55;1694885;82;21624;-72
2022/09/30 03:50:31;;;;;;;24.73;5.17;;;;;;;15.82;75.62;99921.44;1690637;82;21735;-73
2022/09/30 03:53:00;;;;;;;25.20;4.10;;;;;;;15.79;75.69;99935.52;1688002;84;22171;-73
2022/09/30 03:55:27;;;;;;;23.63;3.70;;;;;;;15.77;75.73;99940.43;1647901;85;21759;-73
2022/09/30 03:57:53;;;;;;;30.33;4.33;;;;;;;15.75;75.79;99946.66;1661143;84;22299;-74
2022/09/30 04:00:20;;;;;;;45.47;4.40;;;;;;;15.75;75.91;99946.66;1701723;82;21717;-73
2022/09/30 04:02:47;;;;;;;44.50;4.47;;;;;;;15.75;76.05;99954.73;1700192;82;21756;-73
2022/09/30 04:05:14;;;;;;;31.13;4.50;;;;;;;15.77;76.22;99960.63;1699893;82;21870;-73
2022/09/30 04:07:43;;;;;;;10.13;3.13;;;;;;;15.78;76.46;99966.25;1701658;83;21753;-74
2022/09/30 04:10:10;;;;;;;8.90;4.30;;;;;;;15.81;76.55;99969.13;1702840;83;21721;-73
2022/09/30 04:12:39;;;;;;;4.77;4.13;;;;;;;15.86;76.67;99972.23;1700874;83;21719;-74
2022/09/30 04:15:07;;;;;;;5.20;4.33;;;;;;;15.86;76.73;99970.88;1702961;83;21757;-74
2022/09/30 04:17:34;;;;;;;8.30;5.90;;;;;;;15.85;76.90;99978.17;1699457;82;21740;-73
2022/09/30 04:20:01;;;;;;;6.83;5.37;;;;;;;15.84;77.22;99983.88;1698751;82;21813;-74
2022/09/30 04:22:30;;;;;;;7.37;5.90;;;;;;;15.87;77.57;100001.56;1701069;82;21749;-74
2022/09/30 04:24:58;;;;;;;8.47;6.70;;;;;;;15.95;77.81;100002.72;1680275;82;21733;-74
2022/09/30 04:27:25;;;;;;;7.63;6.43;;;;;;;16.02;77.90;100000.39;1699668;82;22285;-74
2022/09/30 04:29:52;;;;;;;8.27;6.47;;;;;;;16.11;78.03;99997.77;1699953;82;22365;-73
2022/09/30 04:32:24;;;;;;;8.77;6.87;;;;;;;16.18;78.21;100002.16;1692953;82;21756;-73
2022/09/30 04:34:53;;;;;;;9.83;6.47;;;;;;;16.24;78.29;100001.48;1687966;82;22237;-74
2022/09/30 04:37:20;;;;;;;7.43;6.20;;;;;;;16.32;78.37;100000.20;1696922;83;21789;-73
2022/09/30 04:39:47;;;;;;;9.13;6.43;;;;;;;16.43;78.20;100000.73;1693976;82;22261;-73
2022/09/30 04:42:15;;;;;;;7.20;6.47;;;;;;;16.44;78.39;99996.92;1698839;82;21739;-74
2022/09/30 04:44:43;;;;;;;9.43;7.67;;;;;;;16.50;78.47;99991.64;1698409;83;22296;-73
2022/09/30 04:47:10;;;;;;;12.47;7.90;;;;;;;16.60;78.58;99988.67;1688396;82;21770;-73
2022/09/30 04:49:36;;;;;;;10.80;8.20;;;;;;;16.70;78.61;99995.69;1696373;82;21579;-73
2022/09/30 04:52:03;;;;;;;11.63;8.33;;;;;;;16.80;78.72;99993.30;1699573;84;21043;-74
2022/09/30 04:54:30;;;;;;;11.63;7.90;;;;;;;16.91;78.75;99993.24;1699942;83;21552;-72
2022/09/30 04:56:56;;;;;;;10.70;8.83;;;;;;;16.99;78.58;99992.48;1694665;84;21118;-73
2022/09/30 04:59:23;;;;;;;13.47;9.70;;;;;;;17.09;78.76;100000.29;1695782;83;21593;-73
2022/09/30 05:01:50;;;;;;;16.97;10.90;;;;;;;17.16;78.71;99999.04;1702732;83;21812;-74
2022/09/30 05:04:17;;;;;;;14.93;10.63;;;;;;;17.17;78.70;100006.02;1699493;82;21095;-74
2022/09/30 05:06:44;;;;;;;15.53;11.07;;;;;;;17.20;78.77;100010.23;1692900;82;21020;-73
2022/09/30 05:09:10;;;;;;;17.40;12.10;;;;;;;17.28;78.84;100020.82;1702210;84;21036;-73
2022/09/30 05:11:37;;;;;;;13.67;10.87;;;;;;;17.33;78.88;100012.00;1700139;82;20996;-74
2022/09/30 05:14:10;;;;;;;19.77;13.10;;;;;;;17.38;78.86;100009.72;1692213;83;21278;-74
2022/09/30 05:16:37;;;;;;;15.27;12.10;;;;;;;17.38;78.89;100014.33;1694540;84;21072;-74
2022/09/30 05:19:04;;;;;;;18.80;13.00;;;;;;;17.42;79.01;100008.53;1656560;85;21084;-73
2022/09/30 05:21:30;;;;;;;14.97;12.40;;;;;;;17.47;79.06;100016.46;1698390;82;21082;-73
2022/09/30 05:23:57;;;;;;;14.97;12.57;;;;;;;17.51;79.09;100012.83;1695920;82;21522;-74
2022/09/30 05:26:24;;;;;;;17.83;13.20;;;;;;;17.56;79.05;100019.41;1698489;84;21233;-73
2022/09/30 05:28:51;;;;;;;15.60;12.57;;;;;;;17.64;79.08;100018.41;1657916;85;21107;-73
2022/09/30 05:31:19;;;;;;;16.37;12.80;;;;;;;17.70;79.00;100018.47;1698186;84;21094;-73
2022/09/30 05:33:46;;;;;;;15.60;13.60;;;;;;;17.73;78.98;100021.88;1697809;82;20996;-74
2022/09/30 05:36:15;;;;;;;15.33;12.67;;;;;;;17.78;78.99;100023.91;1677036;83;21013;-74
2022/09/30 05:38:50;;;;;;;15.57;11.80;;;;;;;17.82;78.88;100022.72;1659787;84;21164;-74
2022/09/30 05:41:23;;;;;;;12.53;10.73;;;;;;;17.85;78.77;100026.13;1652736;84;21654;-74
2022/09/30 05:43:53;;;;;;;15.58;13.43;;;;;;;17.85;78.64;100030.19;1685289;82;21138;-73
2022/09/30 05:46:25;;;;;;;15.10;12.70;;;;;;;17.80;78.53;100029.80;1681748;82;21105;-74
2022/09/30 05:48:53;;;;;;;16.33;13.00;;;;;;;17.83;78.63;100032.40;1696346;82;20966;-73
2022/09/30 05:51:21;;;;;;;16.67;12.80;;;;;;;17.84;78.48;100038.06;1666446;85;21550;-73
2022/09/30 05:53:48;;;;;;;13.77;12.07;;;;;;;17.84;78.44;100038.62;1702251;82;21092;-74
2022/09/30 05:56:21;;;;;;;12.93;11.27;;;;;;;17.85;78.48;100039.64;1703240;82;21755;-74
2022/09/30 05:58:54;;;;;;;15.60;13.37;;;;;;;17.82;78.28;100045.67;1682927;82;21071;-74
2022/09/30 06:01:21;;;;;;;15.67;13.17;;;;;;;17.77;78.43;100050.69;1693819;84;21059;-73
2022/09/30 06:03:48;;;;;;;14.77;12.50;;;;;;;17.79;78.55;100059.81;1629170;87;21188;-73
2022/09/30 06:06:15;;;;;;;16.07;13.60;;;;;;;17.85;78.66;100055.06;1699393;84;21032;-73
2022/09/30 06:08:42;;;;;;;18.13;14.40;;;;;;;17.93;78.67;100065.06;1700868;84;21451;-73
2022/09/30 06:11:13;;;;;;;15.93;12.90;;;;;;;17.99;78.63;100062.44;1702253;82;21119;-73
2022/09/30 06:13:41;;;;;;;15.77;12.87;;;;;;;18.05;78.50;100060.61;1703265;84;21106;-74
2022/09/30 06:16:09;;;;;;;17.50;13.43;;;;;;;18.08;78.35;100058.39;1700141;84;21966;-72
2022/09/30 06:18:37;;;;;;;13.33;11.93;;;;;;;18.08;78.21;100071.34;1691635;84;21514;-74
2022/09/30 06:21:04;;;;;;;14.33;12.30;;;;;;;18.05;78.03;100076.83;1699176;82;21076;-72
2022/09/30 06:23:33;;;;;;;16.27;14.57;;;;;;;17.98;77.84;100073.02;1702491;84;20972;-74
2022/09/30 06:26:01;;;;;;;15.80;13.77;;;;;;;17.89;77.89;100079.77;1659800;86;21082;-74
2022/09/30 06:28:28;;;;;;;16.03;13.53;;;;;;;17.85;78.03;100085.56;1701062;83;21152;-74
2022/09/30 06:30:54;;;;;;;14.80;13.20;;;;;;;17.83;78.15;100091.04;1702123;84;21511;-74
2022/09/30 06:33:21;;;;;;;15.33;13.73;;;;;;;17.83;78.24;100091.04;1702472;84;21079;-74
2022/09/30 06:35:50;;;;;;;15.63;11.53;;;;;;;17.81;78.30;100095.42;1641815;85;21073;-74
2022/09/30 06:38:16;;;;;;;19.07;14.87;;;;;;;17.81;78.40;100091.37;1682378;83;21063;-73
2022/09/30 06:40:45;;;;;;;19.57;15.77;;;;;;;17.81;78.51;100093.52;1657651;85;21118;-72
2022/09/30 06:43:13;;;;;;;15.83;13.70;;;;;;;17.86;78.64;100094.46;1658610;86;21085;-73
2022/09/30 06:45:40;;;;;;;16.50;14.63;;;;;;;17.97;78.82;100099.25;1660275;86;21073;-74
2022/09/30 06:48:10;;;;;;;18.37;15.17;;;;;;;18.07;78.77;100086.54;1657974;86;21062;-74
2022/09/30 06:50:38;;;;;;;53.80;18.60;;;;;;;18.19;78.73;100089.38;1702470;84;21177;-73
2022/09/30 06:53:07;;;;;;;16.27;14.03;;;;;;;18.30;78.59;100089.30;1702219;83;21591;-76
2022/09/30 06:55:38;;;;;;;16.27;13.80;;;;;;;18.42;78.43;100096.75;1659297;85;21025;-74
2022/09/30 06:58:10;;;;;;;;;;;;;;;18.51;78.11;100094.83;1706345;84;21099;-74
2022/09/30 07:00:35;;;;;;;16.37;14.30;;;;;;;18.61;77.88;100097.75;1704768;84;20166;-75
2022/09/30 07:03:08;;;;;;;15.20;13.60;;;;;;;18.64;77.54;100097.91;1703507;84;21118;-75
2022/09/30 07:05:33;;;;;;;15.90;14.20;;;;;;;18.69;77.31;100099.62;1703790;84;21673;-73
2022/09/30 07:08:00;;;;;;;17.77;14.03;;;;;;;18.74;77.14;100100.30;1660132;86;21009;-74
2022/09/30 07:10:28;;;;;;;16.07;12.87;;;;;;;18.86;77.05;100104.25;1703978;84;21103;-75
2022/09/30 07:12:54;;;;;;;14.27;12.67;;;;;;;18.96;76.77;100110.10;1660458;86;21031;-74
2022/09/30 07:15:22;;;;;;;14.70;13.10;;;;;;;19.03;76.34;100109.59;1704252;84;21488;-74
2022/09/30 07:17:52;;;;;;;14.87;12.90;;;;;;;19.12;76.05;100121.76;1660483;86;21156;-74
2022/09/30 07:20:19;;;;;;;15.93;13.70;;;;;;;19.20;75.72;100125.77;1704534;83;21021;-74
2022/09/30 07:22:46;;;;;;;15.90;12.93;;;;;;;19.28;75.30;100129.58;1661230;86;21071;-74
2022/09/30 07:25:13;;;;;;;14.47;12.80;;;;;;;19.36;74.88;100123.88;1704069;83;21083;-74
2022/09/30 07:27:41;;;;;;;14.80;13.20;;;;;;;19.41;74.46;100124.48;1703826;84;21005;-73
2022/09/30 07:30:08;;;;;;;16.13;13.53;;;;;;;19.50;74.22;100124.98;1704076;84;21083;-73
2022/09/30 07:32:35;;;;;;;15.33;13.20;;;;;;;19.58;73.94;100130.38;1703748;84;21009;-73
2022/09/30 07:35:03;;;;;;;15.80;12.67;;;;;;;19.62;73.41;100130.50;1660631;86;21131;-73
2022/09/30 07:37:35;;;;;;;15.90;13.40;;;;;;;19.59;73.10;100133.30;1704334;83;20984;-74
2022/09/30 07:40:08;;;;;;;16.87;14.03;;;;;;;19.58;72.94;100134.44;1654590;85;21055;-75
2022/09/30 07:42:44;;;;;;;15.30;13.70;;;;;;;19.59;72.75;100140.08;1697347;84;21337;-74
2022/09/30 07:45:09;;;;;;;15.67;13.53;;;;;;;19.61;72.51;100138.38;1703031;84;21072;-77
2022/09/30 07:47:36;;;;;;;17.13;14.40;;;;;;;19.60;72.33;100147.07;1702380;84;21114;-74
2022/09/30 07:50:08;;;;;;;17.97;13.90;;;;;;;19.62;72.32;100145.41;1702996;84;21779;-75
2022/09/30 07:52:33;;;;;;;15.70;14.10;;;;;;;19.66;72.29;100151.78;1703368;83;20992;-74
2022/09/30 07:55:00;;;;;;;21.13;15.00;;;;;;;19.76;72.36;100144.63;1660579;86;21214;-74
2022/09/30 07:57:26;;;;;;;14.10;12.07;;;;;;;19.87;72.16;100151.80;1703719;84;21519;-74
2022/09/30 07:59:53;;;;;;;15.73;13.77;;;;;;;19.96;71.81;100155.82;1660904;86;21471;-74
2022/09/30 08:02:20;;;;;;;16.30;14.03;;;;;;;19.99;71.49;100159.23;1703836;84;21606;-74
2022/09/30 08:04:47;;;;;;;16.37;14.47;;;;;;;20.02;71.22;100154.50;1703941;84;21527;-73
2022/09/30 08:07:15;;;;;;;15.60;12.80;;;;;;;20.10;71.18;100162.59;1660372;86;21174;-74
2022/09/30 08:09:42;;;;;;;14.70;12.83;;;;;;;20.23;70.99;100162.63;1704695;84;21064;-73
2022/09/30 08:12:08;;;;;;;17.30;13.60;;;;;;;20.32;70.52;100156.02;1659833;85;21170;-73
2022/09/30 08:14:35;;;;;;;14.43;12.93;;;;;;;20.43;70.09;100154.25;1704355;83;21021;-72
2022/09/30 08:17:03;;;;;;;17.13;13.47;;;;;;;20.53;69.85;100156.58;1660279;85;21079;-74
2022/09/30 08:19:32;;;;;;;15.10;13.50;;;;;;;20.59;69.18;100152.53;1703613;84;21179;-75
2022/09/30 08:21:59;;;;;;;13.83;12.33;;;;;;;20.62;69.00;100151.87;1660615;86;21028;-74
2022/09/30 08:24:25;;;;;;;14.93;13.07;;;;;;;20.68;68.74;100155.96;1702447;83;21048;-74
2022/09/30 08:26:52;;;;;;;15.50;13.90;;;;;;;20.56;68.17;100159.98;1704132;84;21148;-75
2022/09/30 08:29:19;;;;;;;15.57;13.23;;;;;;;20.49;68.40;100162.41;1658421;84;21016;-74
2022/09/30 08:31:45;;;;;;;15.67;13.57;;;;;;;20.44;68.23;100164.00;1703501;84;21137;-74
2022/09/30 08:34:12;;;;;;;13.70;12.27;;;;;;;20.40;68.26;100173.36;1660440;86;21028;-74
2022/09/30 08:36:39;;;;;;;14.50;13.00;;;;;;;20.44;68.38;100173.48;1703412;83;21657;-74
2022/09/30 08:39:09;;;;;;;15.57;13.30;;;;;;;20.48;68.36;100171.69;1659249;86;21088;-72
2022/09/30 08:41:59;;;;;;;15.77;14.07;;;;;;;20.55;68.19;100174.69;1704034;84;21028;-74
2022/09/30 08:44:44;;;;;;;14.00;12.57;;;;;;;20.62;67.93;100179.00;1702358;84;21213;-73
2022/09/30 08:47:24;;;;;;;15.73;14.07;;;;;;;20.53;67.27;100182.35;1659752;86;21055;-73
2022/09/30 08:50:05;;;;;;;13.77;12.37;;;;;;;20.47;67.69;100182.32;1710042;83;20992;-75
2022/09/30 08:52:36;;;;;;;15.00;13.40;;;;;;;20.53;67.55;100179.64;1709225;83;21044;-78
2022/09/30 08:55:04;;;;;;;15.10;13.50;;;;;;;20.53;67.54;100183.17;1716427;82;20968;-73
2022/09/30 08:57:39;;;;;;;17.30;13.87;;;;;;;20.54;67.47;100182.60;1696969;83;21232;-74
2022/09/30 09:00:10;;;;;;;14.70;13.20;;;;;;;20.61;67.75;100181.50;1710606;83;21012;-74
2022/09/30 09:02:54;;;;;;;14.87;13.20;;;;;;;20.76;67.72;100184.13;1683766;84;21020;-74
2022/09/30 09:05:41;;;;;;;15.23;12.80;;;;;;;20.87;67.60;100183.95;1660239;85;21035;-74
2022/09/30 09:08:16;;;;;;;15.13;13.03;;;;;;;20.96;67.30;100187.92;1675053;85;21100;-74
2022/09/30 09:10:49;;;;;;;15.07;13.47;;;;;;;21.03;67.19;100188.98;1633674;87;20976;-75
2022/09/30 09:13:45;;;;;;;16.52;13.48;;;;;;;21.16;67.07;100191.16;1675832;85;21511;-72
2022/09/30 09:16:56;;;;;;;14.57;12.80;;;;;;;21.29;66.78;100196.84;1681341;84;21039;-72
2022/09/30 09:19:27;;;;;;;15.43;13.07;;;;;;;21.43;66.28;100195.75;1691112;84;21263;-73
2022/09/30 09:21:59;;;;;;;15.17;13.57;;;;;;;21.40;65.93;100199.92;1689884;84;21732;-73
2022/09/30 09:24:30;;;;;;;15.03;13.38;;;;;;;21.44;65.91;100193.25;1699694;83;21221;-73
2022/09/30 09:26:57;;;;;;;16.00;13.93;;;;;;;21.51;65.59;100199.70;1704195;84;21053;-73
2022/09/30 09:29:44;;;;;;;14.60;13.07;;;;;;;21.53;65.42;100192.58;1704063;84;21107;-73
2022/09/30 09:32:16;;;;;;;15.00;13.17;;;;;;;21.56;65.55;100193.27;1701021;84;21543;-73
2022/09/30 09:34:46;;;;;;;15.80;13.10;;;;;;;21.69;65.38;100196.77;1703959;84;20984;-74
2022/09/30 09:40:43;;;;;;;;;;;;;;;21.99;64.81;100191.30;1704510;84;21032;-73
2022/09/30 09:43:21;;;;;;;16.33;13.83;;;;;;;22.05;63.78;100206.03;1702542;84;20154;-72
2022/09/30 09:46:13;;;;;;;14.70;12.73;;;;;;;21.91;63.49;100203.65;1659145;85;21020;-73
2022/09/30 09:48:43;;;;;;;15.13;13.47;;;;;;;21.74;63.54;100202.75;1702657;83;21052;-72
2022/09/30 09:51:31;;;;;;;15.00;13.40;;;;;;;21.63;63.86;100211.72;1703808;84;21126;-74
2022/09/30 09:53:59;;;;;;;15.80;14.07;;;;;;;21.71;64.23;100211.59;1702072;84;21051;-73
2022/09/30 09:56:29;;;;;;;16.27;13.00;;;;;;;21.91;64.11;100212.59;1703810;84;21048;-73
2022/09/30 09:59:16;;;;;;;14.50;13.00;;;;;;;22.11;63.73;100203.28;1703890;84;21085;-74
2022/09/30 10:01:52;;;;;;;14.83;13.10;;;;;;;22.31;63.49;100202.92;1703980;84;21531;-74
2022/09/30 10:04:31;;;;;;;13.53;12.23;;;;;;;22.47;62.34;100196.43;1702594;84;21618;-74
2022/09/30 10:07:13;;;;;;;14.50;13.00;;;;;;;22.56;62.34;100191.39;1660513;86;21504;-74
2022/09/30 10:09:41;;;;;;;15.10;12.58;;;;;;;22.71;62.02;100194.17;1702937;84;20976;-74
2022/09/30 10:12:13;;;;;;;17.23;11.30;;;;;;;22.89;61.07;100199.29;1703239;84;21666;-74
2022/09/30 10:15:05;;;;;;;13.33;11.90;;;;;;;23.05;60.74;100194.69;1659152;85;21053;-74
2022/09/30 10:17:34;;;;;;;13.60;12.20;;;;;;;23.21;60.35;100190.63;1702334;83;21185;-73
2022/09/30 10:20:09;;;;;;;15.27;12.47;;;;;;;23.40;59.60;100189.93;1659164;85;21031;-73
2022/09/30 10:22:37;;;;;;;14.53;13.03;;;;;;;23.48;59.34;100193.61;1637691;86;21170;-74
2022/09/30 10:25:23;;;;;;;14.53;12.90;;;;;;;23.60;58.96;100197.03;1630957;86;21086;-73
2022/09/30 10:27:55;;;;;;;13.47;11.37;;;;;;;23.60;58.09;100193.52;1702214;84;21020;-73
2022/09/30 10:30:42;;;;;;;15.47;12.90;;;;;;;23.58;58.06;100200.67;1695684;84;21238;-73
2022/09/30 10:33:21;;;;;;;14.33;12.17;;;;;;;23.59;58.30;100195.46;1682832;84;21638;-74
2022/09/30 10:35:52;;;;;;;15.57;13.23;;;;;;;23.67;58.12;100199.13;1698279;84;21146;-73
2022/09/30 10:38:20;;;;;;;16.93;12.70;;;;;;;23.73;57.92;100199.70;1703544;84;21578;-75
2022/09/30 10:40:49;;;;;;;16.70;13.13;;;;;;;23.80;57.80;100202.58;1704402;84;21041;-77
2022/09/30 10:43:22;;;;;;;16.25;13.72;;;;;;;23.86;57.86;100210.70;1707604;82;21092;-75
2022/09/30 10:45:50;;;;;;;15.35;13.22;;;;;;;23.93;57.77;100205.98;1663097;85;21001;-74
2022/09/30 10:48:18;;;;;;;16.43;13.43;;;;;;;24.00;57.72;100215.69;1699904;83;21051;-75
2022/09/30 10:50:53;;;;;;;15.63;13.67;;;;;;;24.55;56.00;100220.59;1706331;84;21040;-74
2022/09/30 10:53:25;;;;;;;14.97;12.23;;;;;;;24.61;55.51;100222.44;1706496;84;21060;-74
2022/09/30 10:55:56;;;;;;;15.25;12.65;;;;;;;24.54;55.37;100221.73;1706649;83;21066;-76
2022/09/30 10:58:43;;;;;;;14.60;12.83;;;;;;;24.48;55.46;100217.70;1701945;83;21127;-74
2022/09/30 11:01:32;;;;;;;16.60;13.27;;;;;;;24.49;55.68;100221.45;1703502;84;21230;-75
2022/09/30 11:04:13;;;;;;;14.57;13.07;;;;;;;24.54;55.62;100214.32;1701741;84;20937;-74
2022/09/30 11:06:40;;;;;;;14.90;13.17;;;;;;;24.63;55.42;100220.16;1661430;86;21508;-73
2022/09/30 11:09:21;;;;;;;14.73;13.23;;;;;;;24.60;55.17;100219.50;1703204;84;21222;-73
2022/09/30 11:11:52;;;;;;;14.98;13.38;;;;;;;24.59;55.24;100220.66;1692597;84;21472;-73
2022/09/30 11:14:24;;;;;;;15.80;12.18;;;;;;;24.60;54.93;100227.12;1704002;84;28222;-74
2022/09/30 11:17:25;;;;;;;14.60;12.17;;;;;;;24.57;55.25;100230.56;1702082;84;21436;-73
2022/09/30 11:20:14;;;;;;;14.33;12.73;;;;;;;24.59;54.90;100226.91;1704138;84;20980;-74
2022/09/30 11:23:07;;;;;;;16.23;11.97;;;;;;;24.49;54.99;100225.55;1660114;85;21770;-73
2022/09/30 11:25:55;;;;;;;14.37;12.90;;;;;;;24.52;54.98;100228.14;1703612;83;21028;-74
2022/09/30 11:29:07;;;;;;;14.70;12.73;;;;;;;24.52;55.10;100239.84;1702415;84;21067;-74
2022/09/30 11:31:49;;;;;;;13.70;12.23;;;;;;;24.67;55.37;100236.03;1675497;85;21108;-74
2022/09/30 11:34:55;;;;;;;15.25;12.58;;;;;;;24.96;54.80;100230.54;1675942;85;21071;-73
2022/09/30 11:37:49;;;;;;;15.33;12.77;;;;;;;25.14;54.33;100236.34;1622865;87;21292;-73
2022/09/30 11:41:15;;;;;;;15.67;12.83;;;;;;;25.26;54.12;100228.77;1699420;84;21493;-74
2022/09/30 11:43:57;;;;;;;16.17;13.97;;;;;;;25.41;53.89;100228.44;1691380;84;21074;-73
2022/09/30 11:47:04;;;;;;;13.17;11.77;;;;;;;25.48;53.45;100240.08;1711322;83;20957;-74
2022/09/30 11:49:50;;;;;;;14.70;12.17;;;;;;;25.52;53.43;100242.28;1716378;83;21027;-74
2022/09/30 11:52:43;;;;;;;14.53;12.03;;;;;;;25.65;53.21;100238.78;1716572;82;21092;-75
2022/09/30 11:55:27;;;;;;;13.37;11.70;;;;;;;25.82;52.63;100238.30;1716116;83;20941;-73